createdAt,value
2018-08-30T00:01:36.073Z,42.50
2018-08-30T00:04:05.281Z,42.35
2018-08-30T00:06:34.437Z,42.75
2018-08-30T00:09:04.892Z,42.66
2018-08-30T00:11:34.053Z,43.03
2018-08-30T00:14:03.494Z,42.93
2018-08-30T00:16:32.672Z,42.95
2018-08-30T00:19:01.877Z,42.81
2018-08-30T00:21:31.054Z,43.05
2018-08-30T00:24:00.226Z,42.95
2018-08-30T00:26:29.400Z,43.01
2018-08-30T00:28:58.513Z,43.46
2018-08-30T00:31:27.739Z,43.67
2018-08-30T00:33:56.894Z,44.05
2018-08-30T00:36:26.045Z,44.18
2018-08-30T00:38:55.255Z,44.95
2018-08-30T00:41:24.481Z,45.16
2018-08-30T00:43:53.596Z,46.02
2018-08-30T00:46:22.771Z,46.02
2018-08-30T00:48:52.012Z,46.28
2018-08-30T00:51:21.192Z,47.05
2018-08-30T00:53:50.408Z,47.94
2018-08-30T00:56:19.656Z,47.91
2018-08-30T00:58:48.878Z,48.54
2018-08-30T01:01:18.038Z,48.34
2018-08-30T01:03:47.165Z,49.01
2018-08-30T01:06:16.294Z,49.61
2018-08-30T01:08:45.453Z,50.15
2018-08-30T01:11:14.636Z,50.63
2018-08-30T01:13:43.777Z,51.00
2018-08-30T01:16:12.911Z,52.14
2018-08-30T01:18:42.156Z,52.93
2018-08-30T01:21:11.326Z,52.64
2018-08-30T01:23:40.463Z,52.42
2018-08-30T01:26:09.694Z,52.36
2018-08-30T01:28:38.840Z,52.15
2018-08-30T01:31:07.986Z,51.76
2018-08-30T01:33:37.131Z,51.89
2018-08-30T01:36:06.344Z,51.56
2018-08-30T01:38:35.496Z,51.46
2018-08-30T01:41:04.625Z,51.78
2018-08-30T01:43:33.766Z,51.58
2018-08-30T01:46:02.929Z,51.39
2018-08-30T01:48:32.046Z,51.16
2018-08-30T01:51:01.231Z,51.54
2018-08-30T01:53:30.441Z,51.39
2018-08-30T01:55:59.572Z,51.33
2018-08-30T01:58:28.727Z,51.58
2018-08-30T02:00:57.905Z,51.08
2018-08-30T02:03:27.175Z,51.09
2018-08-30T02:05:56.316Z,51.30
2018-08-30T02:08:25.413Z,51.31
2018-08-30T02:10:54.583Z,51.40
2018-08-30T02:13:23.766Z,51.48
2018-08-30T02:15:52.951Z,51.82
2018-08-30T02:18:22.103Z,52.38
2018-08-30T02:20:51.284Z,52.58
2018-08-30T02:23:20.468Z,52.81
2018-08-30T02:25:49.606Z,53.69
2018-08-30T02:28:18.793Z,54.02
2018-08-30T02:30:47.994Z,54.15
2018-08-30T02:33:18.132Z,54.95
2018-08-30T02:35:47.335Z,55.19
2018-08-30T02:38:16.540Z,55.03
2018-08-30T02:40:45.742Z,55.40
2018-08-30T02:43:14.890Z,55.71
2018-08-30T02:45:44.039Z,55.85
2018-08-30T02:48:13.209Z,55.96
2018-08-30T02:50:42.389Z,55.63
2018-08-30T02:53:11.794Z,56.05
2018-08-30T02:55:40.975Z,56.49
2018-08-30T02:58:10.107Z,56.11
2018-08-30T03:00:39.365Z,56.22
2018-08-30T03:03:08.508Z,57.00
2018-08-30T03:05:37.822Z,57.91
2018-08-30T03:08:07.208Z,58.34
2018-08-30T03:10:36.439Z,59.87
2018-08-30T03:13:05.649Z,60.78
2018-08-30T03:15:34.806Z,60.89
2018-08-30T03:18:04.025Z,62.00
2018-08-30T03:20:33.202Z,64.01
2018-08-30T03:23:02.428Z,63.70
2018-08-30T03:25:31.593Z,64.89
2018-08-30T03:28:00.789Z,65.03
2018-08-30T03:30:29.985Z,65.10
2018-08-30T03:32:59.211Z,65.26
2018-08-30T03:35:28.343Z,65.27
2018-08-30T03:37:57.505Z,65.11
2018-08-30T03:40:26.658Z,65.22
2018-08-30T03:42:55.896Z,65.76
2018-08-30T03:45:25.012Z,65.64
2018-08-30T03:47:54.158Z,65.60
2018-08-30T03:50:23.302Z,66.48
2018-08-30T03:52:52.489Z,66.26
2018-08-30T03:55:21.717Z,66.76
2018-08-30T03:57:50.866Z,67.44
2018-08-30T04:00:20.074Z,67.55
2018-08-30T04:02:49.276Z,67.69
2018-08-30T04:05:18.601Z,67.96
2018-08-30T04:07:47.752Z,67.46
2018-08-30T04:10:16.929Z,68.07
2018-08-30T04:12:46.029Z,67.89
2018-08-30T04:15:15.234Z,67.77
2018-08-30T04:17:44.474Z,67.71
2018-08-30T04:20:13.610Z,68.09
2018-08-30T04:22:42.851Z,68.21
2018-08-30T04:25:12.044Z,68.39
2018-08-30T04:27:41.273Z,68.96
2018-08-30T04:30:10.490Z,69.05
2018-08-30T04:32:39.698Z,68.67
2018-08-30T04:35:08.849Z,68.50
2018-08-30T04:37:37.977Z,68.82
2018-08-30T04:40:07.240Z,68.74
2018-08-30T04:42:36.431Z,68.41
2018-08-30T04:45:06.108Z,68.64
2018-08-30T04:47:35.269Z,68.50
2018-08-30T04:50:04.523Z,68.17
2018-08-30T04:52:33.614Z,67.81
2018-08-30T04:55:02.754Z,68.13
2018-08-30T04:57:31.889Z,68.27
2018-08-30T05:00:01.024Z,68.08
2018-08-30T05:02:30.147Z,67.69
2018-08-30T05:04:59.259Z,67.49
2018-08-30T05:07:28.421Z,68.00
2018-08-30T05:09:57.610Z,67.53
2018-08-30T05:12:26.795Z,67.57
2018-08-30T05:14:55.947Z,67.45
2018-08-30T05:17:25.122Z,67.32
2018-08-30T05:19:54.249Z,67.12
2018-08-30T05:22:23.411Z,67.14
2018-08-30T05:24:52.573Z,67.01
2018-08-30T05:27:21.771Z,67.40
2018-08-30T05:29:51.020Z,67.20
2018-08-30T05:32:20.077Z,67.05
2018-08-30T05:34:49.226Z,67.08
2018-08-30T05:37:18.437Z,67.43
2018-08-30T05:39:47.664Z,67.25
2018-08-30T05:42:16.902Z,67.37
2018-08-30T05:44:46.161Z,67.05
2018-08-30T05:47:15.276Z,67.22
2018-08-30T05:49:44.432Z,67.25
2018-08-30T05:52:13.542Z,67.10
2018-08-30T05:54:42.781Z,66.75
2018-08-30T05:57:11.895Z,66.34
2018-08-30T05:59:41.930Z,66.55
2018-08-30T06:02:11.065Z,66.74
2018-08-30T06:04:40.321Z,66.46
2018-08-30T06:07:09.533Z,66.99
2018-08-30T06:09:38.634Z,66.67
2018-08-30T06:12:07.825Z,66.64
2018-08-30T06:14:36.952Z,67.23
2018-08-30T06:17:06.168Z,67.59
2018-08-30T06:19:35.322Z,67.34
2018-08-30T06:22:04.467Z,67.73
2018-08-30T06:24:33.586Z,67.81
2018-08-30T06:27:03.220Z,67.88
2018-08-30T06:29:32.446Z,68.35
2018-08-30T06:32:02.178Z,67.75
2018-08-30T06:34:31.717Z,68.23
2018-08-30T06:37:00.928Z,67.71
2018-08-30T06:39:30.097Z,67.20
2018-08-30T06:41:59.277Z,67.60
2018-08-30T06:44:28.515Z,67.61
2018-08-30T06:46:57.645Z,68.08
2018-08-30T06:49:26.745Z,67.92
2018-08-30T06:51:56.049Z,68.18
2018-08-30T06:54:25.188Z,68.39
2018-08-30T06:56:54.340Z,67.91
2018-08-30T06:59:24.603Z,67.96
2018-08-30T07:01:53.718Z,67.79
2018-08-30T07:04:22.994Z,67.47
2018-08-30T07:06:52.015Z,67.94
2018-08-30T07:09:21.240Z,67.82
2018-08-30T07:11:50.380Z,67.60
2018-08-30T07:14:19.523Z,67.97
2018-08-30T07:16:48.692Z,67.65
2018-08-30T07:19:17.928Z,67.73
2018-08-30T07:21:47.070Z,67.54
2018-08-30T07:24:16.165Z,67.47
2018-08-30T07:26:45.358Z,67.39
2018-08-30T07:29:14.477Z,67.10
2018-08-30T07:34:38.191Z,66.80
2018-08-30T07:37:13.244Z,66.59
2018-08-30T07:39:46.274Z,66.48
2018-08-30T07:42:16.254Z,66.31
2018-08-30T07:44:45.410Z,66.92
2018-08-30T07:47:14.605Z,66.65
2018-08-30T07:49:43.785Z,66.73
2018-08-30T07:52:12.969Z,65.70
2018-08-30T07:54:42.177Z,65.38
2018-08-30T07:57:11.303Z,65.12
2018-08-30T07:59:40.448Z,64.23
2018-08-30T08:02:09.690Z,64.83
2018-08-30T08:04:38.876Z,64.01
2018-08-30T08:07:08.039Z,63.31
2018-08-30T08:09:37.226Z,62.93
2018-08-30T08:12:06.519Z,62.84
2018-08-30T08:14:35.619Z,62.88
2018-08-30T08:17:04.917Z,63.08
2018-08-30T08:19:34.272Z,63.97
2018-08-30T08:22:03.477Z,63.95
2018-08-30T08:24:32.636Z,64.10
2018-08-30T08:27:01.750Z,64.34
2018-08-30T08:29:31.004Z,64.20
2018-08-30T08:32:00.136Z,64.28
2018-08-30T08:34:29.221Z,62.79
2018-08-30T08:36:58.370Z,61.06
2018-08-30T08:39:27.529Z,60.74
2018-08-30T08:41:56.721Z,59.49
2018-08-30T08:44:26.095Z,59.60
2018-08-30T08:46:55.226Z,59.22
2018-08-30T08:49:24.390Z,59.00
2018-08-30T08:51:53.568Z,60.61
2018-08-30T08:54:22.713Z,61.13
2018-08-30T08:56:51.885Z,61.36
2018-08-30T08:59:21.035Z,61.09
2018-08-30T09:01:50.284Z,60.51
2018-08-30T09:04:19.382Z,61.02
2018-08-30T09:06:48.503Z,61.35
2018-08-30T09:09:17.681Z,61.55
2018-08-30T09:11:46.809Z,61.68
2018-08-30T09:14:15.950Z,61.70
2018-08-30T09:16:45.115Z,61.93
2018-08-30T09:19:14.262Z,61.38
2018-08-30T09:21:43.403Z,62.41
2018-08-30T09:24:12.540Z,62.57
2018-08-30T09:26:41.685Z,62.89
2018-08-30T09:29:10.743Z,63.27
2018-08-30T09:31:39.967Z,62.51
2018-08-30T09:34:09.095Z,62.88
2018-08-30T09:36:38.221Z,62.08
2018-08-30T09:39:09.089Z,62.26
2018-08-30T09:41:38.263Z,61.91
2018-08-30T09:44:07.411Z,61.48
2018-08-30T09:46:36.555Z,59.75
2018-08-30T09:49:06.191Z,58.75
2018-08-30T09:51:35.499Z,57.67
2018-08-30T09:54:04.601Z,58.39
2018-08-30T09:56:33.819Z,58.32
2018-08-30T09:59:09.712Z,59.05
2018-08-30T10:01:50.514Z,60.21
2018-08-30T10:04:20.507Z,60.21
2018-08-30T10:06:49.619Z,60.20
2018-08-30T10:09:18.903Z,59.21
2018-08-30T10:11:48.029Z,58.88
2018-08-30T10:14:17.179Z,58.21
2018-08-30T10:16:46.398Z,58.64
2018-08-30T10:19:15.732Z,59.02
2018-08-30T10:21:44.983Z,60.18
2018-08-30T10:24:14.149Z,58.91
2018-08-30T10:26:43.307Z,57.52
2018-08-30T10:29:12.517Z,56.32
2018-08-30T10:31:41.862Z,56.89
2018-08-30T10:34:10.870Z,57.92
2018-08-30T10:36:40.006Z,57.27
2018-08-30T10:39:09.412Z,58.81
2018-08-30T10:41:38.527Z,59.71
2018-08-30T10:44:07.716Z,59.53
2018-08-30T10:46:36.886Z,59.29
2018-08-30T10:49:06.155Z,58.96
2018-08-30T10:51:35.337Z,58.17
2018-08-30T10:54:04.460Z,58.58
2018-08-30T10:56:33.558Z,58.64
2018-08-30T10:59:02.696Z,59.11
2018-08-30T11:01:31.847Z,59.08
2018-08-30T11:04:01.204Z,60.17
2018-08-30T11:06:30.295Z,60.47
2018-08-30T11:08:59.487Z,59.74
2018-08-30T11:11:28.651Z,59.37
2018-08-30T11:13:57.790Z,60.05
2018-08-30T11:16:26.904Z,59.70
2018-08-30T11:18:56.039Z,59.14
2018-08-30T11:21:25.266Z,56.19
2018-08-30T11:23:54.345Z,55.33
2018-08-30T11:26:23.501Z,55.64
2018-08-30T11:28:52.617Z,55.17
2018-08-30T11:31:21.831Z,55.46
2018-08-30T11:33:50.905Z,55.46
2018-08-30T11:36:20.073Z,54.54
2018-08-30T11:38:49.254Z,53.93
2018-08-30T11:41:18.338Z,53.77
2018-08-30T11:43:47.448Z,52.71
2018-08-30T11:46:16.538Z,52.62
2018-08-30T11:48:45.759Z,53.20
2018-08-30T11:51:16.605Z,53.68
2018-08-30T11:53:46.305Z,54.42
2018-08-30T11:56:15.434Z,54.90
2018-08-30T11:58:44.544Z,55.42
2018-08-30T12:01:13.646Z,55.89
2018-08-30T12:03:45.283Z,55.48
2018-08-30T12:06:14.374Z,55.47
2018-08-30T12:08:43.611Z,54.10
2018-08-30T12:11:13.258Z,53.09
2018-08-30T12:13:42.371Z,52.73
2018-08-30T12:16:11.482Z,52.34
2018-08-30T12:18:40.659Z,52.47
2018-08-30T12:21:09.796Z,52.83
2018-08-30T12:23:38.976Z,53.09
2018-08-30T12:26:08.178Z,52.31
2018-08-30T12:28:38.147Z,49.83
2018-08-30T12:31:07.314Z,49.16
2018-08-30T12:33:36.464Z,51.31
2018-08-30T12:36:06.000Z,51.87
2018-08-30T12:38:35.079Z,53.63
2018-08-30T12:41:04.245Z,53.46
2018-08-30T12:43:33.512Z,53.02
2018-08-30T12:46:02.521Z,52.24
2018-08-30T12:48:31.891Z,52.13
2018-08-30T12:51:01.171Z,51.25
2018-08-30T12:53:30.306Z,51.78
2018-08-30T12:55:59.423Z,52.31
2018-08-30T12:58:28.632Z,53.78
2018-08-30T13:00:57.780Z,53.91
2018-08-30T13:03:26.860Z,52.75
2018-08-30T13:05:56.141Z,52.31
2018-08-30T13:08:25.331Z,51.83
2018-08-30T13:10:54.628Z,51.68
2018-08-30T13:13:23.850Z,52.67
2018-08-30T13:15:59.263Z,52.99
2018-08-30T13:18:28.427Z,54.17
2018-08-30T13:20:57.706Z,54.40
2018-08-30T13:23:26.802Z,53.84
2018-08-30T13:25:55.954Z,53.58
2018-08-30T13:28:25.071Z,54.43
2018-08-30T13:30:54.391Z,55.37
2018-08-30T13:33:23.621Z,55.64
2018-08-30T13:35:52.997Z,54.99
2018-08-30T13:38:22.281Z,53.56
2018-08-30T13:40:51.723Z,51.65
2018-08-30T13:43:20.670Z,50.36
2018-08-30T13:45:49.793Z,49.17
2018-08-30T13:48:18.867Z,50.01
2018-08-30T13:50:48.091Z,50.97
2018-08-30T13:53:17.258Z,50.89
2018-08-30T13:55:46.415Z,51.15
2018-08-30T13:58:15.845Z,50.02
2018-08-30T14:00:45.244Z,49.62
2018-08-30T14:03:13.940Z,49.51
2018-08-30T14:05:43.229Z,49.60
2018-08-30T14:08:12.217Z,48.57
2018-08-30T14:10:41.451Z,48.97
2018-08-30T14:13:10.644Z,49.38
2018-08-30T14:15:39.453Z,49.73
2018-08-30T14:18:08.741Z,49.81
2018-08-30T14:20:37.936Z,51.16
2018-08-30T14:23:07.139Z,51.34
2018-08-30T14:25:36.321Z,51.38
2018-08-30T14:28:05.484Z,51.87
2018-08-30T14:30:34.648Z,52.21
2018-08-30T14:33:03.874Z,53.16
2018-08-30T14:35:33.108Z,53.21
2018-08-30T14:38:02.334Z,53.33
2018-08-30T14:40:31.565Z,53.31
2018-08-30T14:43:00.659Z,53.46
2018-08-30T14:45:29.876Z,54.27
2018-08-30T14:47:59.076Z,54.45
2018-08-30T14:50:28.289Z,54.28
2018-08-30T14:52:57.549Z,55.12
2018-08-30T14:55:26.767Z,54.62
2018-08-30T14:57:56.111Z,55.01
2018-08-30T15:00:25.371Z,54.63
2018-08-30T15:02:54.534Z,55.07
2018-08-30T15:05:23.866Z,55.29
2018-08-30T15:07:52.980Z,55.33
2018-08-30T15:10:22.159Z,55.51
2018-08-30T15:12:51.396Z,55.74
2018-08-30T15:15:20.665Z,56.21
2018-08-30T15:17:49.849Z,56.18
2018-08-30T15:20:19.079Z,56.54
2018-08-30T15:22:48.310Z,56.14
2018-08-30T15:25:17.842Z,55.72
2018-08-30T15:27:47.028Z,55.16
2018-08-30T15:30:16.247Z,54.92
2018-08-30T15:32:45.371Z,54.33
2018-08-30T15:35:14.689Z,54.46
2018-08-30T15:37:43.914Z,54.01
2018-08-30T15:40:13.177Z,53.98
2018-08-30T15:42:42.417Z,54.11
2018-08-30T15:45:11.559Z,54.08
2018-08-30T15:47:40.714Z,53.24
2018-08-30T15:50:09.836Z,53.33
2018-08-30T15:52:45.801Z,53.20
2018-08-30T15:55:15.040Z,54.02
2018-08-30T15:57:44.280Z,53.70
2018-08-30T16:00:15.798Z,53.70
2018-08-30T16:02:45.804Z,53.91
2018-08-30T16:05:14.905Z,53.48
2018-08-30T16:07:44.547Z,54.36
2018-08-30T16:10:14.794Z,55.13
2018-08-30T16:12:44.351Z,57.89
2018-08-30T16:15:13.854Z,61.38
2018-08-30T16:17:43.096Z,63.75
2018-08-30T16:20:12.291Z,65.31
2018-08-30T16:23:49.256Z,66.49
2018-08-30T16:26:18.445Z,67.94
2018-08-30T16:28:47.569Z,67.54
2018-08-30T16:31:16.825Z,68.20
2018-08-30T16:33:45.892Z,67.87
2018-08-30T16:36:15.054Z,68.09
2018-08-30T16:38:44.257Z,68.58
2018-08-30T16:41:13.424Z,68.33
2018-08-30T16:43:42.625Z,68.56
2018-08-30T16:46:11.820Z,68.13
2018-08-30T16:48:41.051Z,68.22
2018-08-30T16:51:10.237Z,68.27
2018-08-30T16:53:39.457Z,68.08
2018-08-30T16:56:08.637Z,67.86
2018-08-30T16:58:37.795Z,67.65
2018-08-30T17:01:06.963Z,67.98
2018-08-30T17:03:36.178Z,67.72
2018-08-30T17:06:05.342Z,67.85
2018-08-30T17:08:34.565Z,68.37
2018-08-30T17:11:10.026Z,68.14
2018-08-30T17:13:39.331Z,68.69
2018-08-30T17:16:08.616Z,68.10
2018-08-30T17:18:38.497Z,67.90
2018-08-30T17:21:07.622Z,68.10
2018-08-30T17:23:36.784Z,67.54
2018-08-30T17:26:06.480Z,67.56
2018-08-30T17:28:35.676Z,66.92
2018-08-30T17:31:04.902Z,67.14
2018-08-30T17:33:34.006Z,67.35
2018-08-30T17:36:03.240Z,67.75
2018-08-30T17:38:32.376Z,67.33
2018-08-30T17:41:01.591Z,67.36
2018-08-30T17:43:30.707Z,67.75
2018-08-30T17:45:59.866Z,67.50
2018-08-30T17:48:29.065Z,67.37
2018-08-30T17:50:58.252Z,66.82
2018-08-30T17:53:27.369Z,67.28
2018-08-30T17:55:56.626Z,67.65
2018-08-30T17:58:25.700Z,67.43
2018-08-30T18:00:54.933Z,67.23
2018-08-30T18:03:24.223Z,67.19
2018-08-30T18:05:53.394Z,67.39
2018-08-30T18:08:22.682Z,67.29
2018-08-30T18:10:51.838Z,67.62
2018-08-30T18:13:21.013Z,67.36
2018-08-30T18:15:50.297Z,67.92
2018-08-30T18:18:19.651Z,67.69
2018-08-30T18:20:48.877Z,67.79
2018-08-30T18:23:18.077Z,67.21
2018-08-30T18:25:47.289Z,66.67
2018-08-30T18:28:16.566Z,66.74
2018-08-30T18:30:45.726Z,66.75
2018-08-30T18:33:14.898Z,66.22
2018-08-30T18:35:44.113Z,66.37
2018-08-30T18:38:13.279Z,65.94
2018-08-30T18:40:42.469Z,65.98
2018-08-30T18:43:11.711Z,66.18
2018-08-30T18:45:40.900Z,65.87
2018-08-30T18:48:10.179Z,66.00
2018-08-30T18:50:39.372Z,65.61
2018-08-30T18:53:08.622Z,64.90
2018-08-30T18:55:37.835Z,64.40
2018-08-30T18:58:07.013Z,64.38
2018-08-30T19:00:36.158Z,64.78
2018-08-30T19:03:05.362Z,64.88
2018-08-30T19:05:34.498Z,64.77
2018-08-30T19:08:03.717Z,64.86
2018-08-30T19:10:32.890Z,64.96
2018-08-30T19:13:02.068Z,65.20
2018-08-30T19:15:38.332Z,65.39
2018-08-30T19:18:12.995Z,65.13
2018-08-30T19:20:42.347Z,64.80
2018-08-30T19:23:11.864Z,64.35
2018-08-30T19:25:41.048Z,64.51
2018-08-30T19:28:10.155Z,64.40
2018-08-30T19:30:39.339Z,62.98
2018-08-30T19:33:08.571Z,62.89
2018-08-30T19:35:43.104Z,62.49
2018-08-30T19:38:12.264Z,62.56
2018-08-30T19:40:46.914Z,61.73
2018-08-30T19:43:16.074Z,61.61
2018-08-30T19:45:45.223Z,61.75
2018-08-30T19:48:14.357Z,61.74
2018-08-30T19:50:43.553Z,62.04
2018-08-30T19:53:13.277Z,62.43
2018-08-30T19:55:42.480Z,61.97
2018-08-30T19:58:11.664Z,61.81
2018-08-30T20:00:40.950Z,62.34
2018-08-30T20:03:10.178Z,61.79
2018-08-30T20:05:39.607Z,61.74
2018-08-30T20:08:09.031Z,61.82
2018-08-30T20:10:38.440Z,61.80
2018-08-30T20:13:08.739Z,61.71
2018-08-30T20:15:38.145Z,61.42
2018-08-30T20:18:07.227Z,61.51
2018-08-30T20:20:36.480Z,61.36
2018-08-30T20:23:05.765Z,61.27
2018-08-30T20:25:34.971Z,61.71
2018-08-30T20:28:04.151Z,61.64
2018-08-30T20:30:33.288Z,61.44
2018-08-30T20:33:02.540Z,61.68
2018-08-30T20:35:31.721Z,62.04
2018-08-30T20:38:00.849Z,61.48
2018-08-30T20:40:29.933Z,60.95
2018-08-30T20:42:59.167Z,61.05
2018-08-30T20:45:28.369Z,61.01
2018-08-30T20:47:57.582Z,60.84
2018-08-30T20:50:26.737Z,61.15
2018-08-30T20:52:55.897Z,60.75
2018-08-30T20:55:25.053Z,60.95
2018-08-30T20:57:54.204Z,60.65
2018-08-30T21:00:23.447Z,60.88
2018-08-30T21:02:52.490Z,61.23
2018-08-30T21:05:21.713Z,61.29
2018-08-30T21:07:50.851Z,61.56
2018-08-30T21:10:20.044Z,61.94
2018-08-30T21:12:49.206Z,61.84
2018-08-30T21:15:18.358Z,61.81
2018-08-30T21:17:47.599Z,62.06
2018-08-30T21:20:16.890Z,62.04
2018-08-30T21:22:46.093Z,62.14
2018-08-30T21:25:15.235Z,61.85
2018-08-30T21:27:44.368Z,61.99
2018-08-30T21:30:13.488Z,61.68
2018-08-30T21:32:42.632Z,61.87
2018-08-30T21:35:11.820Z,61.89
2018-08-30T21:37:40.895Z,61.84
2018-08-30T21:40:09.989Z,61.73
2018-08-30T21:42:39.128Z,62.28
2018-08-30T21:45:08.200Z,62.08
2018-08-30T21:47:37.344Z,61.49
2018-08-30T21:50:06.925Z,61.79
2018-08-30T21:52:36.010Z,61.72
2018-08-30T21:55:05.215Z,62.12
2018-08-30T21:57:34.323Z,61.98
2018-08-30T22:00:03.472Z,61.31
2018-08-30T22:02:32.615Z,61.82
2018-08-30T22:05:01.745Z,62.05
2018-08-30T22:07:30.946Z,62.00
2018-08-30T22:10:00.068Z,61.83
2018-08-30T22:12:29.254Z,62.49
2018-08-30T22:14:58.359Z,62.58
2018-08-30T22:17:27.515Z,62.51
2018-08-30T22:19:56.611Z,62.55
2018-08-30T22:22:25.834Z,62.36
2018-08-30T22:24:55.016Z,62.00
2018-08-30T22:27:24.120Z,62.09
2018-08-30T22:29:53.292Z,62.42
2018-08-30T22:32:22.430Z,62.29
2018-08-30T22:34:51.546Z,62.17
2018-08-30T22:37:20.671Z,62.20
2018-08-30T22:39:49.877Z,62.41
2018-08-30T22:42:19.065Z,62.25
2018-08-30T22:44:48.235Z,62.15
2018-08-30T22:47:17.487Z,62.11
2018-08-30T22:49:46.948Z,62.45
2018-08-30T22:52:16.081Z,62.29
2018-08-30T22:54:45.236Z,62.31
2018-08-30T22:57:14.428Z,62.43
2018-08-30T22:59:43.551Z,62.31
2018-08-30T23:02:12.673Z,62.34
2018-08-30T23:04:41.792Z,62.41
2018-08-30T23:07:10.942Z,62.88
2018-08-30T23:09:40.172Z,62.95
2018-08-30T23:12:09.292Z,63.15
2018-08-30T23:14:38.355Z,62.92
2018-08-30T23:17:07.523Z,62.67
2018-08-30T23:19:36.918Z,62.75
2018-08-30T23:22:06.207Z,62.71
2018-08-30T23:24:35.318Z,63.03
2018-08-30T23:27:04.491Z,63.11
2018-08-30T23:29:33.613Z,62.93
2018-08-30T23:32:02.746Z,63.09
2018-08-30T23:34:31.897Z,63.45
2018-08-30T23:37:01.017Z,63.59
2018-08-30T23:39:30.158Z,63.30
2018-08-30T23:41:59.361Z,63.62
2018-08-30T23:44:28.478Z,63.55
2018-08-30T23:46:57.584Z,63.75
2018-08-30T23:49:26.723Z,63.47
2018-08-30T23:51:55.825Z,63.71
2018-08-30T23:54:24.978Z,63.82
2018-08-30T23:56:54.146Z,63.68
2018-08-30T23:59:40.508Z,63.75
